Flight Track Log - Related Links

Times and Time Zones

All times are in EST time to prevent confusion due to time zone crossing. See the UAL1116 flight status page for this flight to view local times or setup timezone preferences in your user account.

Time Position Orientation Groundspeed Altitude Reporting Facility
EST Latitude Longitude Course Direction KTS MPH feet Rate Location/Type
Sun 04:26:00 PM 20.8361 -100.4845 314° West  Level Estimated
Sun 04:27:00 PM 20.9143 -100.5724 314° West  Level FlightAware Approximate
Sun 04:28:00 PM 20.9925 -100.6604 314° West  Level FlightAware Approximate
Sun 04:29:00 PM 21.0706 -100.7484 314° West  Level FlightAware Approximate
Sun 04:30:00 PM 21.1487 -100.8366 314° West  Level FlightAware Approximate
Sun 04:31:00 PM 21.2306 -100.9208 314° West  Level Estimated
Sun 04:32:00 PM 21.3092 -101.0085 314° West  Level FlightAware Approximate
Sun 04:33:00 PM 21.3878 -101.0963 314° West  Level FlightAware Approximate
Sun 04:34:00 PM 21.4664 -101.1842 314° West  Level FlightAware Approximate
Sun 04:35:00 PM 21.5448 -101.2722 314° West  Level FlightAware Approximate
Sun 04:36:00 PM 21.6233 -101.3603 314° West  Level FlightAware Approximate
Sun 04:37:00 PM 21.7017 -101.4485 314° West  Level FlightAware Approximate
Sun 04:38:00 PM 21.7800 -101.5368 314° West  Level FlightAware Approximate
Sun 04:39:00 PM 21.8584 -101.6251 314° West  Level FlightAware Approximate
Sun 04:40:00 PM 21.9366 -101.7136 314° West  Level FlightAware Approximate
Sun 04:41:00 PM 22.0182 -101.7986 314° West  Level Estimated
Sun 04:42:00 PM 22.0971 -101.8865 314° West  Level FlightAware Approximate
Sun 04:43:00 PM 22.1759 -101.9745 314° West  Level FlightAware Approximate
Sun 04:44:00 PM 22.2557 -102.0637 314° West  Level FlightAware Approximate
Sun 04:45:00 PM 22.3355 -102.1530 314° West  Level FlightAware Approximate
Sun 04:46:00 PM 22.4151 -102.2424 314° West  Level FlightAware Approximate
Sun 04:47:00 PM 22.4948 -102.3319 314° West  Level FlightAware Approximate
Sun 04:48:00 PM 22.5744 -102.4215 314° West  Level FlightAware Approximate
Sun 04:49:00 PM 22.6539 -102.5112 314° West  Level FlightAware Approximate
Sun 04:50:00 PM 22.7334 -102.6010 314° West  Level FlightAware Approximate
Sun 04:51:00 PM 22.8129 -102.6909 314° West  Level FlightAware Approximate
Sun 04:52:00 PM 22.8923 -102.7809 314° West  Level FlightAware Approximate
Sun 04:53:00 PM 22.9716 -102.8710 314° West  Level FlightAware Approximate
Sun 04:54:00 PM 23.0509 -102.9613 314° West  Level FlightAware Approximate
Sun 04:55:00 PM 23.1302 -103.0516 314° West  Level FlightAware Approximate
Sun 04:56:00 PM 23.2094 -103.1421 314° West  Level FlightAware Approximate
Sun 04:57:00 PM 23.2885 -103.2326 314° West  Level FlightAware Approximate
Sun 04:58:00 PM 23.3676 -103.3233 314° West  Level FlightAware Approximate
Sun 04:59:00 PM 23.4466 -103.4140 314° West  Level FlightAware Approximate
Sun 05:00:00 PM 23.5256 -103.5049 313° West  Level FlightAware Approximate
Sun 05:01:00 PM 23.6045 -103.5959 313° West  Level FlightAware Approximate
Sun 05:02:00 PM 23.6834 -103.6870 313° West  Level FlightAware Approximate
Sun 05:03:00 PM 23.7622 -103.7782 313° West  Level FlightAware Approximate
Sun 05:04:00 PM 23.8410 -103.8695 313° West  Level FlightAware Approximate
Sun 05:05:00 PM 23.9197 -103.9609 313° West  Level FlightAware Approximate
Sun 05:06:00 PM 23.9984 -104.0525 313° West  Level FlightAware Approximate
Sun 05:07:00 PM 24.0770 -104.1441 313° West  Level FlightAware Approximate
Sun 05:08:00 PM 24.1586 -104.2326 313° West  Level Estimated
Sun 05:09:00 PM 24.2374 -104.3241 313° West  Level FlightAware Approximate
Sun 05:10:00 PM 24.3163 -104.4157 313° West  Level FlightAware Approximate
Sun 05:11:00 PM 24.3950 -104.5074 313° West  Level FlightAware Approximate
Sun 05:12:00 PM 24.4737 -104.5993 313° West  Level FlightAware Approximate
Sun 05:13:00 PM 24.5524 -104.6912 313° West  Level FlightAware Approximate
Sun 05:14:00 PM 24.6310 -104.7833 313° West  Level FlightAware Approximate
Sun 05:15:00 PM 24.7095 -104.8755 313° West  Level FlightAware Approximate
Sun 05:16:00 PM 24.7880 -104.9678 313° West  Level FlightAware Approximate
Sun 05:17:00 PM 24.8664 -105.0602 313° West  Level FlightAware Approximate
Sun 05:18:00 PM 24.9447 -105.1527 313° West  Level FlightAware Approximate
Sun 05:19:00 PM 25.0231 -105.2454 313° West  Level FlightAware Approximate
Sun 05:20:00 PM 25.1013 -105.3382 313° West  Level FlightAware Approximate
Sun 05:21:00 PM 25.1795 -105.4311 313° West  Level FlightAware Approximate
Sun 05:22:00 PM 25.2576 -105.5241 313° West  Level FlightAware Approximate
Sun 05:23:00 PM 25.3357 -105.6172 313° West  Level FlightAware Approximate
Sun 05:24:00 PM 25.4137 -105.7104 313° West  Level FlightAware Approximate
Sun 05:25:00 PM 25.4917 -105.8038 313° West  Level FlightAware Approximate
Sun 05:26:00 PM 25.5696 -105.8973 313° West  Level FlightAware Approximate
Sun 05:27:00 PM 25.6474 -105.9909 313° West  Level FlightAware Approximate
Sun 05:28:00 PM 25.7282 -106.0815 312° West  Level Estimated
Sun 05:29:00 PM 25.8058 -106.1755 313° West  Level FlightAware Approximate
Sun 05:30:00 PM 25.8833 -106.2696 312° West  Level FlightAware Approximate
Sun 05:31:00 PM 25.9608 -106.3638 312° West  Level FlightAware Approximate
Sun 05:32:00 PM 26.0382 -106.4582 312° West  Level FlightAware Approximate
Sun 05:33:00 PM 26.1155 -106.5527 312° West  Level FlightAware Approximate
Sun 05:34:00 PM 26.1961 -106.6438 312° West  Level Estimated
Sun 05:35:00 PM 26.2731 -106.7388 312° West  Level FlightAware Approximate
Sun 05:36:00 PM 26.3500 -106.8339 312° West  Level FlightAware Approximate
Sun 05:37:00 PM 26.4269 -106.9291 312° West  Level FlightAware Approximate
Sun 05:38:00 PM 26.5037 -107.0245 312° West  Level FlightAware Approximate
Sun 05:39:00 PM 26.5805 -107.1199 312° West  Level FlightAware Approximate
Sun 05:40:00 PM 26.6571 -107.2155 312° West  Level FlightAware Approximate
Sun 05:41:00 PM 26.7337 -107.3112 312° West  Level FlightAware Approximate
Sun 05:42:00 PM 26.8140 -107.4033 312° West  Level Estimated
Sun 05:43:00 PM 26.8909 -107.4989 312° West  Level FlightAware Approximate
Sun 05:44:00 PM 26.9677 -107.5946 312° West  Level FlightAware Approximate
Sun 05:45:00 PM 27.0445 -107.6904 312° West  Level FlightAware Approximate
Sun 05:46:00 PM 27.1212 -107.7864 312° West  Level FlightAware Approximate
Sun 05:47:00 PM 27.1978 -107.8825 312° West  Level FlightAware Approximate
Sun 05:48:00 PM 27.2744 -107.9787 312° West  Level FlightAware Approximate
Sun 05:49:00 PM 27.3509 -108.0751 312° West  Level FlightAware Approximate
Sun 05:50:00 PM 27.4273 -108.1716 312° West  Level FlightAware Approximate
Sun 05:51:00 PM 27.5037 -108.2682 312° West  Level FlightAware Approximate
Sun 05:52:00 PM 27.5800 -108.3650 312° West  Level FlightAware Approximate
Sun 05:53:00 PM 27.6562 -108.4619 312° West  Level FlightAware Approximate
Sun 05:54:00 PM 27.7324 -108.5590 312° West  Level FlightAware Approximate
Sun 05:55:00 PM 27.8085 -108.6562 312° West  Level FlightAware Approximate
Sun 05:56:00 PM 27.8845 -108.7535 311° West  Level FlightAware Approximate
Sun 05:57:00 PM 27.9605 -108.8509 311° West  Level FlightAware Approximate
Sun 05:58:00 PM 28.0364 -108.9485 311° West  Level FlightAware Approximate
Sun 05:59:00 PM 28.1122 -109.0462 311° West  Level FlightAware Approximate
Sun 06:00:00 PM 28.1880 -109.1441 311° West  Level FlightAware Approximate
Sun 06:01:00 PM 28.2637 -109.2421 311° West  Level FlightAware Approximate
Sun 06:02:00 PM 28.3393 -109.3402 311° West  Level FlightAware Approximate
Sun 06:03:00 PM 28.4148 -109.4385 311° West  Level FlightAware Approximate
Sun 06:04:00 PM 28.4942 -109.5329 311° West  Level Estimated
Sun 06:05:00 PM 28.5696 -109.6315 311° West  Level FlightAware Approximate
Sun 06:06:00 PM 28.6449 -109.7302 311° West  Level FlightAware Approximate
Sun 06:07:00 PM 28.7201 -109.8291 311° West  Level FlightAware Approximate
Sun 06:08:00 PM 28.7953 -109.9281 311° West  Level FlightAware Approximate
Sun 06:09:00 PM 28.8705 -110.0272 311° West  Level FlightAware Approximate
Sun 06:10:00 PM 28.9455 -110.1265 311° West  Level FlightAware Approximate
Sun 06:11:00 PM 29.0205 -110.2259 311° West  Level FlightAware Approximate
Sun 06:12:00 PM 29.0954 -110.3255 311° West  Level FlightAware Approximate
Sun 06:13:00 PM 29.1702 -110.4252 311° West  Level FlightAware Approximate
Sun 06:14:00 PM 29.2450 -110.5250 311° West  Level FlightAware Approximate
Sun 06:15:00 PM 29.3196 -110.6250 311° West  Level FlightAware Approximate
Sun 06:16:00 PM 29.3942 -110.7252 311° West  Level FlightAware Approximate
Sun 06:17:00 PM 29.4688 -110.8255 310° West  Level FlightAware Approximate
Sun 06:18:00 PM 29.5417 -110.9239 310° West  Level FlightAware Approximate
Sun 06:19:00 PM 29.6146 -111.0224 310° West  Level FlightAware Approximate
Sun 06:20:00 PM 29.6917 -111.1167 309° West  Level Estimated
Sun 06:21:00 PM 29.7637 -111.2162 310° West  Level FlightAware Approximate
Sun 06:22:00 PM 29.8356 -111.3159 310° West  Level FlightAware Approximate
Sun 06:23:00 PM 29.9075 -111.4158 310° West  Level FlightAware Approximate
Sun 06:24:00 PM 29.9792 -111.5157 310° West  Level FlightAware Approximate
Sun 06:25:00 PM 30.0509 -111.6159 310° West  Level FlightAware Approximate
Sun 06:26:00 PM 30.1225 -111.7161 310° West  Level FlightAware Approximate
Sun 06:27:00 PM 30.1941 -111.8166 310° West  Level FlightAware Approximate
Sun 06:28:00 PM 30.2655 -111.9171 309° West  Level FlightAware Approximate
Sun 06:29:00 PM 30.3424 -112.0123 307° West  Level Estimated
Sun 06:30:00 PM 30.4129 -112.1139 309° West  Level FlightAware Approximate
Sun 06:31:00 PM 30.4833 -112.2157 309° West  Level FlightAware Approximate
Sun 06:32:00 PM 30.5536 -112.3176 309° West  Level FlightAware Approximate
Sun 06:33:00 PM 30.6304 -112.4132 305° West  Level Estimated
Sun 06:34:00 PM 30.6982 -112.5176 307° West  Level FlightAware Approximate
Sun 06:35:00 PM 30.7659 -112.6221 307° West  Level FlightAware Approximate
Sun 06:36:00 PM 30.8335 -112.7268 307° West  Level FlightAware Approximate
Sun 06:37:00 PM 30.9010 -112.8316 307° West  Level FlightAware Approximate
Sun 06:38:00 PM 30.9685 -112.9366 307° West  Level FlightAware Approximate
Sun 06:39:00 PM 31.0358 -113.0417 307° West  Level FlightAware Approximate
Sun 06:40:00 PM 31.1031 -113.1469 307° West  Level FlightAware Approximate
Sun 06:41:00 PM 31.1703 -113.2524 307° West  Level FlightAware Approximate
Sun 06:42:00 PM 31.2374 -113.3579 307° West  Level FlightAware Approximate
Sun 06:43:00 PM 31.3044 -113.4637 307° West  Level FlightAware Approximate
Sun 06:44:00 PM 31.3713 -113.5695 307° West  Level FlightAware Approximate
Sun 06:45:00 PM 31.4382 -113.6756 306° West  Level FlightAware Approximate
Sun 06:46:00 PM 31.5050 -113.7817 306° West  Level FlightAware Approximate
Sun 06:47:00 PM 31.5716 -113.8880 306° West  Level FlightAware Approximate
Sun 06:48:00 PM 31.6382 -113.9945 306° West  Level FlightAware Approximate
Sun 06:49:00 PM 31.7153 -114.0908 288° West  Level Estimated
Sun 06:50:00 PM 31.7687 -114.2073 298° West  Level FlightAware Approximate
Sun 06:51:00 PM 31.8220 -114.3238 298° West  Level FlightAware Approximate
Sun 06:52:00 PM 31.8752 -114.4405 298° West  Level FlightAware Approximate
Sun 06:53:00 PM 31.9283 -114.5573 298° West  Level FlightAware Approximate
Sun 06:54:00 PM 31.9813 -114.6743 298° West  Level FlightAware Approximate
Sun 06:55:00 PM 32.0341 -114.7914 298° West  Level FlightAware Approximate
Sun 06:56:00 PM 32.0869 -114.9087 298° West  Level FlightAware Approximate
Sun 06:57:00 PM 32.1396 -115.0260 298° West  Level FlightAware Approximate
Sun 06:58:00 PM 32.1921 -115.1435 298° West  Level FlightAware Approximate
Sun 06:59:00 PM 32.2709 -115.2384 288° West  Level Estimated
Sun 07:00:00 PM 32.3151 -115.3608 293° West  Level FlightAware Approximate
Sun 07:01:00 PM 32.3928 -115.4539 315° West  Level Estimated
Sun 07:02:00 PM 32.4704 -115.5472 315° West  Level Estimated
Sun 07:02:18 PM 32.1878 -114.7847 314° West 441 507 37,900  Level Los Angeles Center
Sun 07:03:00 PM 32.5479 -115.6406 315° West  Level Estimated
Sun 07:03:20 PM 32.2481 -114.9050 301° West 434 499 37,900  Level Los Angeles Center
Sun 07:04:00 PM 32.6254 -115.7342 315° West  Level Estimated
Sun 07:04:22 PM 32.3189 -115.0267 305° West 442 509 38,000  Level Los Angeles Center
Sun 07:05:00 PM 32.7028 -115.8280 314° West  Level Estimated
Sun 07:05:23 PM 32.3950 -115.1711 302° West 435 501 38,000  Level Los Angeles Center
Sun 07:06:00 PM 32.7801 -115.9219 314° West  Level Estimated
Sun 07:06:25 PM 32.4592 -115.2928 302° West 438 504 37,900  Level Los Angeles Center
Sun 07:07:00 PM 32.8574 -116.0160 314° West  Level Estimated
Sun 07:07:27 PM 32.5244 -115.4156 302° West 440 506 37,900  Level Los Angeles Center
Sun 07:08:29 PM 32.5892 -115.5372 302° West 439 505 37,900  Level Los Angeles Center
Sun 07:09:31 PM 32.6519 -115.6600 301° West 437 503 37,900 48 Level Los Angeles Center
Sun 07:10:33 PM 32.6986 -115.8261 289° West 440 506 38,000 48 Climbing Los Angeles Center
Sun 07:11:35 PM 32.7364 -115.9644 288° West 439 505 38,000  Level Los Angeles Center
Sun 07:12:37 PM 32.7744 -116.1025 288° West 438 504 38,000  Level Los Angeles Center
Sun 07:13:39 PM 32.8083 -116.2286 288° West 435 501 38,000  Level Los Angeles Center
Sun 07:14:41 PM 32.8503 -116.3933 287° West 435 501 38,000  Level Los Angeles Center
Sun 07:15:43 PM 32.8872 -116.5258 288° West 435 501 38,000 -48 Level Los Angeles Center
Sun 07:16:45 PM 32.9242 -116.6617 288° West 435 501 37,900 -48 Descending Los Angeles Center
Sun 07:17:47 PM 32.9600 -116.7972 288° West 432 497 37,900 48 Level Los Angeles Center
Sun 07:18:49 PM 32.9958 -116.9344 287° West 434 499 38,000  Climbing Los Angeles Center
Sun 07:19:51 PM 33.0394 -117.0992 288° West 435 501 37,900  Descending Los Angeles Center
Sun 07:20:53 PM 33.0756 -117.2375 287° West 429 494 38,000 48 Climbing Los Angeles Center
Sun 07:21:55 PM 33.1094 -117.3728 287° West 427 491 38,000  Level Los Angeles Center
Sun 07:22:57 PM 33.1450 -117.5089 287° West 429 494 38,000  Level Los Angeles Center
Sun 07:23:59 PM 33.2042 -117.6303 300° West 428 493 38,000  Level Los Angeles Center
Sun 07:25:01 PM 33.2756 -117.7425 307° West 426 490 38,000  Level Los Angeles Center
Sun 07:26:03 PM 33.3447 -117.8556 306° West 423 487 38,000  Level Los Angeles Center
Sun 07:27:05 PM 33.4264 -117.9850 307° West 407 468 38,000  Level Los Angeles Center
Sun 07:28:07 PM 33.4925 -118.0922 306° West 402 463 38,000  Level Los Angeles Center
Sun 07:29:09 PM 33.5592 -118.1994 307° West 401 461 38,000  Level Los Angeles Center
Sun 07:30:11 PM 33.6256 -118.3078 306° West 400 460 38,000  Level Los Angeles Center
Sun 07:31:13 PM 33.6897 -118.4128 306° West 407 468 38,000  Level Los Angeles Center
Sun 07:32:15 PM 33.7644 -118.5350 306° West 408 470 38,000  Level Los Angeles Center
Sun 07:33:17 PM 33.8314 -118.6439 307° West 405 466 38,000  Level Los Angeles Center
Sun 07:34:19 PM 33.8981 -118.7517 307° West 401 461 38,000  Level Los Angeles Center
Sun 07:35:21 PM 33.9633 -118.8608 306° West 401 461 38,000  Level Los Angeles Center
Sun 07:36:23 PM 34.0419 -118.9917 306° West 402 463 38,000  Level Los Angeles Center
Sun 07:37:25 PM 34.1081 -119.1006 306° West 402 463 38,000  Level Los Angeles Center
Sun 07:38:27 PM 34.1742 -119.2114 306° West 405 466 38,000  Level Los Angeles Center
Sun 07:39:29 PM 34.2403 -119.3231 306° West 408 470 38,000  Level Los Angeles Center
Sun 07:40:31 PM 34.3072 -119.4339 306° West 408 470 38,000  Level Los Angeles Center
Sun 07:41:33 PM 34.3742 -119.5447 306° West 408 470 38,000  Level Los Angeles Center
Sun 07:42:35 PM 34.4531 -119.6772 306° West 407 468 38,000  Level Los Angeles Center
Sun 07:43:37 PM 34.5194 -119.7867 306° West 404 465 38,000  Level Los Angeles Center
Sun 07:44:38 PM 34.5986 -119.8700 319° Northwest 400 460 38,000  Level Los Angeles Center
Sun 07:45:40 PM 34.6828 -119.9617 318° Northwest 400 460 38,000  Level Los Angeles Center
Sun 07:46:42 PM 34.7675 -120.0522 319° Northwest 404 465 38,000  Level Los Angeles Center
Sun 07:47:44 PM 34.8642 -120.1592 318° Northwest 404 465 38,000  Level Los Angeles Center
Sun 07:48:46 PM 34.9472 -120.2492 318° Northwest 405 466 38,000 -48 Level Los Angeles Center
Sun 07:49:48 PM 35.0289 -120.3397 318° Northwest 401 461 37,900  Descending Los Angeles Center
Sun 07:50:50 PM 35.1108 -120.4308 318° Northwest 402 463 38,000 48 Climbing Los Angeles Center
Sun 07:51:52 PM 35.1917 -120.5214 318° Northwest 398 458 38,000  Level Los Angeles Center
Sun 07:53:05 PM 35.2900 -120.6306 318° Northwest 400 460 38,000  Level Los Angeles Center
Sun 07:54:08 PM 35.3911 -120.7350 320° Northwest 397 457 38,000  Level Los Angeles Center
Sun 07:55:10 PM 35.4814 -120.8144 324° Northwest 399 459 38,000  Level Los Angeles Center
Sun 07:56:12 PM 35.5711 -120.8944 324° Northwest 400 460 38,000 -44 Level Los Angeles Center
Sun 07:57:26 PM 35.6925 -121.0031 324° Northwest 400 460 37,900  Descending Los Angeles Center
Sun 07:58:36 PM 35.8006 -121.1003 324° Northwest 400 460 38,000 -91 Climbing Oakland Center
Sun 07:59:38 PM 35.8908 -121.1808 324° Northwest 400 460 37,700 -634 Descending Oakland Center
Sun 08:00:39 PM 35.9808 -121.2625 324° Northwest 402 463 36,700 -934 Descending Oakland Center
Sun 08:01:40 PM 36.0728 -121.3458 324° Northwest 409 471 35,800 -1,475 Descending Oakland Center
Sun 08:02:41 PM 36.1650 -121.4300 324° Northwest 408 470 33,700 -2,557 Descending Oakland Center
Sun 08:03:42 PM 36.2569 -121.5153 323° Northwest 413 475 30,600 -2,705 Descending Oakland Center
Sun 08:04:43 PM 36.3489 -121.5986 324° Northwest 409 471 28,200 -2,244 Descending Oakland Center
Sun 08:05:45 PM 36.4361 -121.6778 324° Northwest 392 451 26,000 -2,146 Descending Oakland Center
Sun 08:06:46 PM 36.5200 -121.7544 324° Northwest 375 432 23,800 -2,311 Descending Oakland Center
Sun 08:07:47 PM 36.6108 -121.8400 323° Northwest 363 418 21,300 -2,213 Descending Oakland Center
Sun 08:08:48 PM 36.6897 -121.9122 324° Northwest 354 407 19,300 -1,967 Descending Oakland Center
Sun 08:09:49 PM 36.7725 -121.9772 328° Northwest 350 403 17,300 -2,164 Descending Oakland Center
Sun 08:10:50 PM 36.8703 -121.9964 351° North 351 404 14,900 -2,115 Descending Oakland Center
Sun 08:11:51 PM 36.9647 -122.0208 348° North 349 402 13,000 -1,475 Descending Oakland Center
Sun 08:12:52 PM 37.0492 -122.0456 347° North 318 366 11,900 -1,475 Descending Oakland Center
Sun 08:13:53 PM 37.1017 -122.1153 313° West 292 336 10,000 -1,659 Descending Oakland Center
Sun 08:14:55 PM 37.1464 -122.1997 304° West 289 333 8,500 -1,024 Descending Oakland Center
Sun 08:15:56 PM 37.2153 -122.2133 351° North 268 308 7,900 -885 Descending Oakland Center
Sun 08:16:57 PM 37.2953 -122.1850 16° North 249 287 6,700 -1,131 Descending Oakland Center
Sun 08:17:58 PM 37.3594 -122.1631 15° North 241 277 5,600 -1,180 Descending Oakland Center
Sun 08:18:59 PM 37.4172 -122.1306 24° Northeast 231 266 4,300 -787 Descending Oakland Center
Sun 08:20:00 PM 37.4811 -122.1258 North 234 269 4,000 -492 Descending Oakland Center
Sun 08:21:01 PM 37.5289 -122.1564 333° Northwest 207 238 3,300 -787 Descending Oakland Center
Sun 08:22:02 PM 37.5511 -122.2167 295° West 195 224 2,400 -885 Descending Oakland Center
Sun 08:23:03 PM 37.5742 -122.2697 299° West 184 212 1,500 -836 Descending Oakland Center
Sun 08:24:04 PM 37.5936 -122.3161 298° West 166 191 700 9,098 Descending Oakland Center
Sun 08:25:05 PM 37.6125 -122.3614 298° West 156 180 20,000 18,984 Climbing Oakland Center
Sun 08:27:00 PM 37.6167 -122.3667 322° Northwest  Level FlightAware Approximate

Login

Don't have an account? Register now (free) for customized features, flight alerts, and more!